CTA weather

Catania-Fontanarossa Airport
Catania, Sicily, Italy

Public forecast

Using degrees Celsius for public forecast. Weather courtesy of forecast.io.

METAR (pilot weather report)

Retrieved 2019/04/26 10:20 UTC (17 minutes ago):

LICC 261020Z 15007KT 8000 NSC 23/15 Q1018

TAF (pilot weather forecast)

Retrieved 2019/04/26 06:00 UTC (5 hours ago):

TAF LICC 260500Z 2606/2706 VRB04KT 7000 FEW020 BECMG 2608/2610 08010KT BECMG 2616/2618 23006KT